sensor_id;sensor_type;location;lat;lon;timestamp;pressure;altitude;pressure_sealevel;temperature;humidity
37778;BME280;23615;51.506;7.678;2023-08-07T00:00:09;99457.03;;;13.51;100.00
37778;BME280;23615;51.506;7.678;2023-08-07T00:02:35;99455.94;;;13.47;100.00
37778;BME280;23615;51.506;7.678;2023-08-07T00:05:00;99457.09;;;13.56;100.00
37778;BME280;23615;51.506;7.678;2023-08-07T00:07:25;99450.59;;;13.47;100.00
37778;BME280;23615;51.506;7.678;2023-08-07T00:09:51;99453.03;;;13.54;100.00
37778;BME280;23615;51.506;7.678;2023-08-07T00:12:16;99451.69;;;13.51;100.00
37778;BME280;23615;51.506;7.678;2023-08-07T00:14:41;99453.72;;;13.39;100.00
37778;BME280;23615;51.506;7.678;2023-08-07T00:17:07;99448.66;;;13.42;100.00
37778;BME280;23615;51.506;7.678;2023-08-07T00:19:33;99448.97;;;13.46;100.00
37778;BME280;23615;51.506;7.678;2023-08-07T00:21:59;99451.91;;;13.44;100.00
37778;BME280;23615;51.506;7.678;2023-08-07T00:24:24;99434.44;;;13.42;100.00
37778;BME280;23615;51.506;7.678;2023-08-07T00:26:49;99437.69;;;13.44;100.00
37778;BME280;23615;51.506;7.678;2023-08-07T00:29:14;99433.38;;;13.43;100.00
37778;BME280;23615;51.506;7.678;2023-08-07T00:31:40;99433.41;;;13.48;100.00
37778;BME280;23615;51.506;7.678;2023-08-07T00:34:05;99431.28;;;13.50;100.00
37778;BME280;23615;51.506;7.678;2023-08-07T00:36:30;99432.09;;;13.45;100.00
37778;BME280;23615;51.506;7.678;2023-08-07T00:38:59;99432.28;;;13.39;100.00
37778;BME280;23615;51.506;7.678;2023-08-07T00:41:25;99441.91;;;13.35;100.00
37778;BME280;23615;51.506;7.678;2023-08-07T00:43:50;99443.31;;;13.42;100.00
37778;BME280;23615;51.506;7.678;2023-08-07T00:46:16;99442.75;;;13.40;100.00
37778;BME280;23615;51.506;7.678;2023-08-07T00:48:41;99439.31;;;13.45;100.00
37778;BME280;23615;51.506;7.678;2023-08-07T00:51:07;99439.88;;;13.47;100.00
37778;BME280;23615;51.506;7.678;2023-08-07T00:53:37;99440.66;;;13.47;100.00
37778;BME280;23615;51.506;7.678;2023-08-07T00:56:03;99442.19;;;13.38;100.00
37778;BME280;23615;51.506;7.678;2023-08-07T00:58:28;99445.22;;;13.47;100.00
37778;BME280;23615;51.506;7.678;2023-08-07T01:00:55;99454.59;;;13.49;100.00
37778;BME280;23615;51.506;7.678;2023-08-07T01:03:20;99444.69;;;13.50;100.00
37778;BME280;23615;51.506;7.678;2023-08-07T01:05:45;99450.63;;;13.52;100.00
37778;BME280;23615;51.506;7.678;2023-08-07T01:08:11;99445.72;;;13.44;100.00
37778;BME280;23615;51.506;7.678;2023-08-07T01:16:26;99456.44;;;13.44;100.00
37778;BME280;23615;51.506;7.678;2023-08-07T01:18:53;99462.28;;;13.36;100.00
37778;BME280;23615;51.506;7.678;2023-08-07T01:21:21;99458.53;;;13.37;100.00
37778;BME280;23615;51.506;7.678;2023-08-07T01:23:47;99458.53;;;13.37;100.00
37778;BME280;23615;51.506;7.678;2023-08-07T01:26:13;99462.63;;;13.44;100.00
37778;BME280;23615;51.506;7.678;2023-08-07T01:28:42;99466.34;;;13.43;100.00
37778;BME280;23615;51.506;7.678;2023-08-07T01:31:14;99459.34;;;13.37;100.00
37778;BME280;23615;51.506;7.678;2023-08-07T01:33:45;99467.91;;;13.39;100.00
37778;BME280;23615;51.506;7.678;2023-08-07T01:36:14;99469.38;;;13.52;100.00
37778;BME280;23615;51.506;7.678;2023-08-07T01:38:41;99472.53;;;13.44;100.00
37778;BME280;23615;51.506;7.678;2023-08-07T01:41:07;99473.63;;;13.48;100.00
37778;BME280;23615;51.506;7.678;2023-08-07T01:43:32;99470.69;;;13.49;100.00
37778;BME280;23615;51.506;7.678;2023-08-07T01:45:58;99471.00;;;13.53;100.00
37778;BME280;23615;51.506;7.678;2023-08-07T01:48:23;99468.53;;;13.46;100.00
37778;BME280;23615;51.506;7.678;2023-08-07T01:50:49;99470.94;;;13.48;100.00
37778;BME280;23615;51.506;7.678;2023-08-07T01:53:14;99477.66;;;13.51;100.00
37778;BME280;23615;51.506;7.678;2023-08-07T01:55:39;99473.63;;;13.48;100.00
37778;BME280;23615;51.506;7.678;2023-08-07T01:58:05;99474.97;;;13.45;100.00
37778;BME280;23615;51.506;7.678;2023-08-07T02:00:30;99474.97;;;13.45;100.00
37778;BME280;23615;51.506;7.678;2023-08-07T02:02:56;99478.44;;;13.46;100.00
37778;BME280;23615;51.506;7.678;2023-08-07T02:05:22;99477.66;;;13.51;100.00
37778;BME280;23615;51.506;7.678;2023-08-07T02:07:47;99483.25;;;13.44;100.00
37778;BME280;23615;51.506;7.678;2023-08-07T02:10:12;99488.69;;;13.54;100.00
37778;BME280;23615;51.506;7.678;2023-08-07T02:12:37;99489.09;;;13.41;100.00
37778;BME280;23615;51.506;7.678;2023-08-07T02:15:03;99496.06;;;13.37;100.00
37778;BME280;23615;51.506;7.678;2023-08-07T02:17:29;99489.00;;;13.31;100.00
37778;BME280;23615;51.506;7.678;2023-08-07T02:19:58;99488.50;;;13.34;100.00
37778;BME280;23615;51.506;7.678;2023-08-07T02:22:23;99501.94;;;13.39;100.00
37778;BME280;23615;51.506;7.678;2023-08-07T02:24:48;99493.91;;;13.39;100.00
37778;BME280;23615;51.506;7.678;2023-08-07T02:27:14;99502.97;;;13.33;100.00
37778;BME280;23615;51.506;7.678;2023-08-07T02:29:39;99506.44;;;13.28;100.00
37778;BME280;23615;51.506;7.678;2023-08-07T02:32:05;99502.66;;;13.29;100.00
37778;BME280;23615;51.506;7.678;2023-08-07T02:34:31;99508.75;;;13.20;100.00
37778;BME280;23615;51.506;7.678;2023-08-07T02:36:58;99497.25;;;13.24;100.00
37778;BME280;23615;51.506;7.678;2023-08-07T02:39:24;99497.75;;;13.21;100.00
37778;BME280;23615;51.506;7.678;2023-08-07T02:41:50;99499.78;;;13.09;100.00
37778;BME280;23615;51.506;7.678;2023-08-07T02:44:15;99509.50;;;13.15;100.00
37778;BME280;23615;51.506;7.678;2023-08-07T02:46:42;99487.72;;;13.11;100.00
37778;BME280;23615;51.506;7.678;2023-08-07T02:49:07;99492.38;;;13.16;100.00
37778;BME280;23615;51.506;7.678;2023-08-07T02:51:33;99503.78;;;13.11;100.00
37778;BME280;23615;51.506;7.678;2023-08-07T02:53:58;99487.31;;;13.20;100.00
37778;BME280;23615;51.506;7.678;2023-08-07T02:56:23;99503.34;;;13.15;100.00
37778;BME280;23615;51.506;7.678;2023-08-07T02:58:49;99497.22;;;13.19;100.00
37778;BME280;23615;51.506;7.678;2023-08-07T03:01:14;99490.50;;;13.17;100.00
37778;BME280;23615;51.506;7.678;2023-08-07T03:03:39;99497.50;;;13.23;100.00
37778;BME280;23615;51.506;7.678;2023-08-07T03:06:05;99494.56;;;13.19;100.00
37778;BME280;23615;51.506;7.678;2023-08-07T03:08:30;99496.44;;;13.24;100.00
37778;BME280;23615;51.506;7.678;2023-08-07T03:10:57;99501.78;;;13.19;100.00
37778;BME280;23615;51.506;7.678;2023-08-07T03:13:23;99496.41;;;13.19;100.00
37778;BME280;23615;51.506;7.678;2023-08-07T03:15:49;99486.00;;;13.22;100.00
37778;BME280;23615;51.506;7.678;2023-08-07T03:18:16;99490.84;;;13.25;100.00
37778;BME280;23615;51.506;7.678;2023-08-07T03:20:41;99486.78;;;13.23;100.00
37778;BME280;23615;51.506;7.678;2023-08-07T03:23:08;99498.38;;;13.28;100.00
37778;BME280;23615;51.506;7.678;2023-08-07T03:25:34;99493.75;;;13.19;100.00
37778;BME280;23615;51.506;7.678;2023-08-07T03:27:59;99491.22;;;13.12;100.00
37778;BME280;23615;51.506;7.678;2023-08-07T03:30:24;99487.34;;;13.25;100.00
37778;BME280;23615;51.506;7.678;2023-08-07T03:32:50;99492.16;;;13.23;100.00
37778;BME280;23615;51.506;7.678;2023-08-07T03:35:15;99498.63;;;13.27;100.00
37778;BME280;23615;51.506;7.678;2023-08-07T03:37:40;99506.44;;;13.28;100.00
37778;BME280;23615;51.506;7.678;2023-08-07T03:40:06;99506.59;;;13.22;100.00
37778;BME280;23615;51.506;7.678;2023-08-07T03:42:31;99519.00;;;13.28;100.00
37778;BME280;23615;51.506;7.678;2023-08-07T03:44:57;99509.34;;;13.27;100.00
37778;BME280;23615;51.506;7.678;2023-08-07T03:47:23;99516.56;;;13.26;100.00
37778;BME280;23615;51.506;7.678;2023-08-07T03:49:48;99506.91;;;13.25;100.00
37778;BME280;23615;51.506;7.678;2023-08-07T03:52:14;99515.16;;;13.19;100.00
37778;BME280;23615;51.506;7.678;2023-08-07T03:54:39;99526.69;;;13.19;100.00
37778;BME280;23615;51.506;7.678;2023-08-07T03:57:05;99510.09;;;13.22;100.00
37778;BME280;23615;51.506;7.678;2023-08-07T03:59:30;99515.44;;;13.22;100.00
37778;BME280;23615;51.506;7.678;2023-08-07T04:01:55;99516.06;;;13.29;100.00
37778;BME280;23615;51.506;7.678;2023-08-07T04:04:21;99529.63;;;13.18;100.00
37778;BME280;23615;51.506;7.678;2023-08-07T04:06:46;99527.91;;;13.11;100.00
37778;BME280;23615;51.506;7.678;2023-08-07T04:09:11;99529.63;;;13.18;100.00
37778;BME280;23615;51.506;7.678;2023-08-07T04:11:37;99519.97;;;13.17;100.00
37778;BME280;23615;51.506;7.678;2023-08-07T04:14:02;99520.78;;;13.17;100.00
37778;BME280;23615;51.506;7.678;2023-08-07T04:16:27;99541.41;;;13.17;100.00
37778;BME280;23615;51.506;7.678;2023-08-07T04:18:53;99537.81;;;13.11;100.00
37778;BME280;23615;51.506;7.678;2023-08-07T04:21:18;99532.16;;;13.07;100.00
37778;BME280;23615;51.506;7.678;2023-08-07T04:23:43;99535.03;;;13.01;100.00
37778;BME280;23615;51.506;7.678;2023-08-07T04:26:09;99533.47;;;13.05;100.00
37778;BME280;23615;51.506;7.678;2023-08-07T04:28:34;99531.38;;;13.12;100.00
37778;BME280;23615;51.506;7.678;2023-08-07T04:30:59;99544.44;;;13.25;100.00
37778;BME280;23615;51.506;7.678;2023-08-07T04:33:25;99553.16;;;13.16;100.00
37778;BME280;23615;51.506;7.678;2023-08-07T04:35:50;99547.72;;;13.10;100.00
37778;BME280;23615;51.506;7.678;2023-08-07T04:38:16;99545.84;;;13.11;100.00
37778;BME280;23615;51.506;7.678;2023-08-07T04:40:48;99552.41;;;13.20;100.00
37778;BME280;23615;51.506;7.678;2023-08-07T04:43:14;99540.09;;;13.19;100.00
37778;BME280;23615;51.506;7.678;2023-08-07T04:45:41;99558.53;;;13.16;100.00
37778;BME280;23615;51.506;7.678;2023-08-07T04:48:09;99546.50;;;13.18;100.00
37778;BME280;23615;51.506;7.678;2023-08-07T04:50:34;99552.41;;;13.20;100.00
37778;BME280;23615;51.506;7.678;2023-08-07T04:53:00;99550.03;;;13.24;100.00
37778;BME280;23615;51.506;7.678;2023-08-07T04:55:25;99553.47;;;13.19;100.00
37778;BME280;23615;51.506;7.678;2023-08-07T04:57:51;99561.88;;;13.28;100.00
37778;BME280;23615;51.506;7.678;2023-08-07T05:00:19;99556.69;;;13.21;100.00
37778;BME280;23615;51.506;7.678;2023-08-07T05:02:44;99555.16;;;13.25;100.00
37778;BME280;23615;51.506;7.678;2023-08-07T05:05:10;99559.47;;;13.31;100.00
37778;BME280;23615;51.506;7.678;2023-08-07T05:07:35;99559.19;;;13.28;100.00
37778;BME280;23615;51.506;7.678;2023-08-07T05:10:04;99569.56;;;13.19;100.00
37778;BME280;23615;51.506;7.678;2023-08-07T05:12:29;99558.28;;;13.17;100.00
37778;BME280;23615;51.506;7.678;2023-08-07T05:14:55;99559.13;;;13.23;100.00
37778;BME280;23615;51.506;7.678;2023-08-07T05:17:20;99561.75;;;13.18;100.00
37778;BME280;23615;51.506;7.678;2023-08-07T05:19:45;99567.72;;;13.25;100.00
37778;BME280;23615;51.506;7.678;2023-08-07T05:22:10;99567.28;;;13.33;100.00
37778;BME280;23615;51.506;7.678;2023-08-07T05:24:36;99566.47;;;13.32;100.00
37778;BME280;23615;51.506;7.678;2023-08-07T05:27:07;99571.81;;;13.32;100.00
37778;BME280;23615;51.506;7.678;2023-08-07T05:29:33;99567.97;;;13.23;100.00
37778;BME280;23615;51.506;7.678;2023-08-07T05:31:58;99569.59;;;13.24;100.00
37778;BME280;23615;51.506;7.678;2023-08-07T05:34:24;99562.25;;;13.15;100.00
37778;BME280;23615;51.506;7.678;2023-08-07T05:36:49;99560.19;;;13.22;100.00
37778;BME280;23615;51.506;7.678;2023-08-07T05:39:14;99580.00;;;13.21;100.00
37778;BME280;23615;51.506;7.678;2023-08-07T05:41:40;99575.16;;;13.18;100.00
37778;BME280;23615;51.506;7.678;2023-08-07T05:44:05;99576.25;;;13.22;100.00
37778;BME280;23615;51.506;7.678;2023-08-07T05:46:30;99582.38;;;13.17;100.00
37778;BME280;23615;51.506;7.678;2023-08-07T05:48:56;99578.69;;;13.23;100.00
37778;BME280;23615;51.506;7.678;2023-08-07T05:51:21;99570.91;;;13.22;100.00
37778;BME280;23615;51.506;7.678;2023-08-07T05:53:47;99581.16;;;13.30;100.00
37778;BME280;23615;51.506;7.678;2023-08-07T05:56:12;99585.88;;;13.18;100.00
37778;BME280;23615;51.506;7.678;2023-08-07T05:58:37;99587.03;;;13.27;100.00
37778;BME280;23615;51.506;7.678;2023-08-07T06:01:03;99590.19;;;13.19;100.00
37778;BME280;23615;51.506;7.678;2023-08-07T06:03:28;99586.56;;;13.13;100.00
37778;BME280;23615;51.506;7.678;2023-08-07T06:05:53;99583.69;;;13.15;100.00
37778;BME280;23615;51.506;7.678;2023-08-07T06:08:19;99577.63;;;13.24;100.00
37778;BME280;23615;51.506;7.678;2023-08-07T06:10:44;99582.44;;;13.22;100.00
37778;BME280;23615;51.506;7.678;2023-08-07T06:13:10;99591.78;;;13.20;100.00
37778;BME280;23615;51.506;7.678;2023-08-07T06:15:35;99592.16;;;13.28;100.00
37778;BME280;23615;51.506;7.678;2023-08-07T06:18:00;99590.47;;;13.22;100.00
37778;BME280;23615;51.506;7.678;2023-08-07T06:20:26;99597.69;;;13.22;100.00
37778;BME280;23615;51.506;7.678;2023-08-07T06:22:51;99597.19;;;13.25;100.00
37778;BME280;23615;51.506;7.678;2023-08-07T06:25:17;99606.09;;;13.30;100.00
37778;BME280;23615;51.506;7.678;2023-08-07T06:27:44;99592.66;;;13.25;100.00
37778;BME280;23615;51.506;7.678;2023-08-07T06:30:10;99605.28;;;13.30;100.00
37778;BME280;23615;51.506;7.678;2023-08-07T06:32:36;99607.16;;;13.29;100.00
37778;BME280;23615;51.506;7.678;2023-08-07T06:35:02;99602.00;;;13.23;100.00
37778;BME280;23615;51.506;7.678;2023-08-07T06:37:28;99612.47;;;13.24;100.00
37778;BME280;23615;51.506;7.678;2023-08-07T06:39:53;99617.00;;;13.24;100.00
37778;BME280;23615;51.506;7.678;2023-08-07T06:42:18;99614.78;;;13.16;100.00
37778;BME280;23615;51.506;7.678;2023-08-07T06:44:44;99619.88;;;13.17;100.00
37778;BME280;23615;51.506;7.678;2023-08-07T06:47:09;99617.44;;;13.16;100.00
37778;BME280;23615;51.506;7.678;2023-08-07T06:49:34;99624.56;;;13.27;100.00
37778;BME280;23615;51.506;7.678;2023-08-07T06:52:00;99632.63;;;13.32;100.00
37778;BME280;23615;51.506;7.678;2023-08-07T06:54:25;99643.06;;;13.28;100.00
37778;BME280;23615;51.506;7.678;2023-08-07T06:56:50;99640.38;;;13.28;100.00
37778;BME280;23615;51.506;7.678;2023-08-07T06:59:15;99631.78;;;13.26;100.00
37778;BME280;23615;51.506;7.678;2023-08-07T07:01:41;99639.28;;;13.29;100.00
37778;BME280;23615;51.506;7.678;2023-08-07T07:04:06;99643.91;;;13.34;100.00
37778;BME280;23615;51.506;7.678;2023-08-07T07:06:32;99641.84;;;13.41;100.00
37778;BME280;23615;51.506;7.678;2023-08-07T07:08:58;99647.03;;;13.26;100.00
37778;BME280;23615;51.506;7.678;2023-08-07T07:11:23;99653.00;;;13.33;100.00
37778;BME280;23615;51.506;7.678;2023-08-07T07:13:50;99645.22;;;13.31;100.00
37778;BME280;23615;51.506;7.678;2023-08-07T07:16:17;99653.63;;;13.40;100.00
37778;BME280;23615;51.506;7.678;2023-08-07T07:18:42;99667.59;;;13.42;100.00
37778;BME280;23615;51.506;7.678;2023-08-07T07:21:07;99655.81;;;13.43;100.00
37778;BME280;23615;51.506;7.678;2023-08-07T07:23:33;99656.38;;;13.45;100.00
37778;BME280;23615;51.506;7.678;2023-08-07T07:25:58;99665.03;;;13.52;100.00
37778;BME280;23615;51.506;7.678;2023-08-07T07:28:23;99670.38;;;13.52;100.00
37778;BME280;23615;51.506;7.678;2023-08-07T07:30:50;99662.94;;;13.59;100.00
37778;BME280;23615;51.506;7.678;2023-08-07T07:33:16;99679.97;;;13.48;100.00
37778;BME280;23615;51.506;7.678;2023-08-07T07:35:41;99679.16;;;13.47;100.00
37778;BME280;23615;51.506;7.678;2023-08-07T07:38:07;99675.44;;;13.48;100.00
37778;BME280;23615;51.506;7.678;2023-08-07T07:40:34;99681.16;;;13.57;100.00
37778;BME280;23615;51.506;7.678;2023-08-07T07:42:59;99680.41;;;13.40;100.00
37778;BME280;23615;51.506;7.678;2023-08-07T07:45:24;99695.06;;;13.54;100.00
37778;BME280;23615;51.506;7.678;2023-08-07T07:47:50;99689.47;;;13.56;100.00
37778;BME280;23615;51.506;7.678;2023-08-07T07:50:15;99688.22;;;13.63;100.00
37778;BME280;23615;51.506;7.678;2023-08-07T07:52:41;99689.50;;;13.61;100.00
37778;BME280;23615;51.506;7.678;2023-08-07T07:55:06;99699.50;;;13.65;100.00
37778;BME280;23615;51.506;7.678;2023-08-07T08:20:50;99729.44;;;13.84;100.00
37778;BME280;23615;51.506;7.678;2023-08-07T08:23:16;99737.34;;;13.96;100.00
37778;BME280;23615;51.506;7.678;2023-08-07T08:25:41;99725.34;;;14.03;100.00
37778;BME280;23615;51.506;7.678;2023-08-07T08:28:06;99733.16;;;14.05;100.00
37778;BME280;23615;51.506;7.678;2023-08-07T08:30:32;99734.53;;;14.07;100.00
37778;BME280;23615;51.506;7.678;2023-08-07T08:32:57;99737.94;;;14.03;100.00
37778;BME280;23615;51.506;7.678;2023-08-07T08:35:22;99751.88;;;14.00;100.00
37778;BME280;23615;51.506;7.678;2023-08-07T08:37:48;99748.06;;;13.96;100.00
37778;BME280;23615;51.506;7.678;2023-08-07T08:40:13;99751.94;;;14.05;100.00
37778;BME280;23615;51.506;7.678;2023-08-07T08:42:43;99749.09;;;14.16;100.00
37778;BME280;23615;51.506;7.678;2023-08-07T08:45:09;99759.72;;;14.06;100.00
37778;BME280;23615;51.506;7.678;2023-08-07T08:47:38;99755.91;;;14.02;100.00
37778;BME280;23615;51.506;7.678;2023-08-07T08:50:08;99773.91;;;14.02;100.00
37778;BME280;23615;51.506;7.678;2023-08-07T08:52:37;99772.53;;;13.99;100.00
37778;BME280;23615;51.506;7.678;2023-08-07T08:55:03;99777.00;;;13.94;100.00
37778;BME280;23615;51.506;7.678;2023-08-07T08:57:29;99780.81;;;13.98;100.00
37778;BME280;23615;51.506;7.678;2023-08-07T08:59:56;99785.97;;;14.04;100.00
37778;BME280;23615;51.506;7.678;2023-08-07T09:02:22;99781.28;;;14.16;100.00
37778;BME280;23615;51.506;7.678;2023-08-07T09:04:47;99789.84;;;14.13;100.00
37778;BME280;23615;51.506;7.678;2023-08-07T09:07:14;99784.84;;;14.22;100.00
37778;BME280;23615;51.506;7.678;2023-08-07T09:09:40;99791.44;;;14.36;100.00
37778;BME280;23615;51.506;7.678;2023-08-07T09:12:12;99796.38;;;14.22;100.00
37778;BME280;23615;51.506;7.678;2023-08-07T09:14:41;99789.47;;;14.53;100.00
37778;BME280;23615;51.506;7.678;2023-08-07T09:17:09;99803.00;;;14.64;100.00
37778;BME280;23615;51.506;7.678;2023-08-07T09:19:34;99794.97;;;14.69;100.00
37778;BME280;23615;51.506;7.678;2023-08-07T09:21:59;99793.28;;;14.94;100.00
37778;BME280;23615;51.506;7.678;2023-08-07T09:24:25;99798.97;;;14.98;100.00
37778;BME280;23615;51.506;7.678;2023-08-07T09:26:51;99802.84;;;14.80;100.00
37778;BME280;23615;51.506;7.678;2023-08-07T09:29:18;99803.69;;;14.54;100.00
37778;BME280;23615;51.506;7.678;2023-08-07T09:31:44;99817.59;;;14.46;100.00
37778;BME280;23615;51.506;7.678;2023-08-07T09:34:12;99818.91;;;14.43;100.00
37778;BME280;23615;51.506;7.678;2023-08-07T09:36:41;99838.50;;;14.44;100.00
37778;BME280;23615;51.506;7.678;2023-08-07T09:39:06;99820.63;;;14.54;100.00
37778;BME280;23615;51.506;7.678;2023-08-07T09:41:32;99828.25;;;14.41;100.00
37778;BME280;23615;51.506;7.678;2023-08-07T09:43:58;99823.13;;;14.66;100.00
37778;BME280;23615;51.506;7.678;2023-08-07T09:46:25;99826.53;;;14.83;100.00
37778;BME280;23615;51.506;7.678;2023-08-07T09:48:50;99839.28;;;15.03;100.00
37778;BME280;23615;51.506;7.678;2023-08-07T09:51:16;99840.72;;;15.11;100.00
37778;BME280;23615;51.506;7.678;2023-08-07T09:53:41;99844.88;;;14.96;100.00
37778;BME280;23615;51.506;7.678;2023-08-07T09:56:06;99839.13;;;15.15;100.00
37778;BME280;23615;51.506;7.678;2023-08-07T09:58:32;99843.50;;;15.26;100.00
37778;BME280;23615;51.506;7.678;2023-08-07T10:01:00;99837.41;;;15.41;100.00
37778;BME280;23615;51.506;7.678;2023-08-07T10:03:26;99858.03;;;15.30;100.00
37778;BME280;23615;51.506;7.678;2023-08-07T10:05:51;99845.34;;;15.20;100.00
37778;BME280;23615;51.506;7.678;2023-08-07T10:08:17;99850.53;;;15.32;100.00
37778;BME280;23615;51.506;7.678;2023-08-07T10:10:43;99829.88;;;15.38;100.00
37778;BME280;23615;51.506;7.678;2023-08-07T10:13:09;99849.97;;;15.30;100.00
37778;BME280;23615;51.506;7.678;2023-08-07T10:15:37;99862.47;;;15.09;100.00
37778;BME280;23615;51.506;7.678;2023-08-07T10:18:03;99858.44;;;15.12;100.00
37778;BME280;23615;51.506;7.678;2023-08-07T10:20:30;99864.16;;;15.20;100.00
37778;BME280;23615;51.506;7.678;2023-08-07T10:23:07;99862.19;;;15.48;100.00
37778;BME280;23615;51.506;7.678;2023-08-07T10:25:34;99858.81;;;15.62;100.00
37778;BME280;23615;51.506;7.678;2023-08-07T10:28:01;99866.97;;;15.78;100.00
37778;BME280;23615;51.506;7.678;2023-08-07T10:30:29;99849.69;;;15.63;100.00
37778;BME280;23615;51.506;7.678;2023-08-07T10:32:56;99853.81;;;15.81;100.00
37778;BME280;23615;51.506;7.678;2023-08-07T10:35:26;99847.97;;;15.52;99.14
37778;BME280;23615;51.506;7.678;2023-08-07T10:37:54;99849.59;;;15.53;99.31
37778;BME280;23615;51.506;7.678;2023-08-07T10:40:19;99857.44;;;15.55;99.38
37778;BME280;23615;51.506;7.678;2023-08-07T10:42:59;99870.28;;;15.53;99.47
37778;BME280;23615;51.506;7.678;2023-08-07T10:45:27;99865.00;;;15.63;100.00
37778;BME280;23615;51.506;7.678;2023-08-07T10:48:12;99873.97;;;15.42;100.00
37778;BME280;23615;51.506;7.678;2023-08-07T10:50:55;99876.34;;;15.70;100.00
37778;BME280;23615;51.506;7.678;2023-08-07T10:53:45;99886.66;;;15.88;100.00
37778;BME280;23615;51.506;7.678;2023-08-07T10:56:29;99885.63;;;15.99;100.00
37778;BME280;23615;51.506;7.678;2023-08-07T10:58:55;99877.09;;;16.18;100.00
37778;BME280;23615;51.506;7.678;2023-08-07T11:01:51;99885.72;;;16.20;100.00
37778;BME280;23615;51.506;7.678;2023-08-07T11:04:16;99884.97;;;16.29;100.00
37778;BME280;23615;51.506;7.678;2023-08-07T11:06:43;99885.22;;;16.28;99.81
37778;BME280;23615;51.506;7.678;2023-08-07T11:09:10;99879.88;;;16.48;100.00
37778;BME280;23615;51.506;7.678;2023-08-07T11:11:43;99881.56;;;16.69;100.00
37778;BME280;23615;51.506;7.678;2023-08-07T11:14:13;99876.22;;;16.74;98.11
37778;BME280;23615;51.506;7.678;2023-08-07T11:16:40;99878.38;;;16.88;99.32
37778;BME280;23615;51.506;7.678;2023-08-07T11:19:05;99884.03;;;16.91;97.92
37778;BME280;23615;51.506;7.678;2023-08-07T11:21:32;99884.31;;;16.90;96.45
37778;BME280;23615;51.506;7.678;2023-08-07T11:23:58;99899.41;;;17.06;97.87
37778;BME280;23615;51.506;7.678;2023-08-07T11:26:23;99896.16;;;16.83;94.70
37778;BME280;23615;51.506;7.678;2023-08-07T11:28:51;99883.97;;;16.56;91.69
37778;BME280;23615;51.506;7.678;2023-08-07T11:31:17;99881.16;;;16.30;92.76
37778;BME280;23615;51.506;7.678;2023-08-07T11:33:43;99877.19;;;16.38;96.82
37778;BME280;23615;51.506;7.678;2023-08-07T11:36:15;99892.78;;;16.41;97.25
37778;BME280;23615;51.506;7.678;2023-08-07T11:38:41;99887.97;;;16.58;97.26
37778;BME280;23615;51.506;7.678;2023-08-07T11:41:12;99898.31;;;16.87;95.42
37778;BME280;23615;51.506;7.678;2023-08-07T11:43:38;99885.94;;;17.01;92.62
37778;BME280;23615;51.506;7.678;2023-08-07T11:46:07;99892.41;;;17.25;89.71
37778;BME280;23615;51.506;7.678;2023-08-07T11:48:34;99879.97;;;17.44;88.99
37778;BME280;23615;51.506;7.678;2023-08-07T11:51:01;99872.44;;;17.46;89.71
37778;BME280;23615;51.506;7.678;2023-08-07T11:53:29;99892.63;;;17.69;87.52
37778;BME280;23615;51.506;7.678;2023-08-07T11:55:57;99873.41;;;17.91;90.43
37778;BME280;23615;51.506;7.678;2023-08-07T11:58:24;99877.41;;;18.04;86.85
37778;BME280;23615;51.506;7.678;2023-08-07T12:00:50;99891.47;;;18.01;87.53
37778;BME280;23615;51.506;7.678;2023-08-07T12:03:33;99879.66;;;17.76;83.10
37778;BME280;23615;51.506;7.678;2023-08-07T12:06:03;99897.72;;;17.76;82.65
37778;BME280;23615;51.506;7.678;2023-08-07T12:08:36;99888.19;;;18.04;84.93
37778;BME280;23615;51.506;7.678;2023-08-07T12:11:03;99907.41;;;17.97;82.76
37778;BME280;23615;51.506;7.678;2023-08-07T12:13:30;99908.56;;;17.45;79.61
37778;BME280;23615;51.506;7.678;2023-08-07T12:15:57;99905.88;;;17.45;80.26
37778;BME280;23615;51.506;7.678;2023-08-07T12:18:24;99901.03;;;17.37;80.48
37778;BME280;23615;51.506;7.678;2023-08-07T12:20:51;99891.31;;;17.16;79.99
37778;BME280;23615;51.506;7.678;2023-08-07T12:23:33;99913.72;;;17.11;80.14
37778;BME280;23615;51.506;7.678;2023-08-07T12:25:59;99913.97;;;17.10;80.89
37778;BME280;23615;51.506;7.678;2023-08-07T12:28:24;99925.28;;;17.22;80.04
37778;BME280;23615;51.506;7.678;2023-08-07T12:30:51;99919.06;;;17.21;79.78
37778;BME280;23615;51.506;7.678;2023-08-07T12:33:17;99926.09;;;17.43;79.69
37778;BME280;23615;51.506;7.678;2023-08-07T12:35:42;99919.59;;;17.59;77.47
37778;BME280;23615;51.506;7.678;2023-08-07T12:38:08;99918.00;;;17.68;77.03
37778;BME280;23615;51.506;7.678;2023-08-07T12:40:34;99910.72;;;17.43;78.63
37778;BME280;23615;51.506;7.678;2023-08-07T12:43:04;99921.50;;;17.48;77.10
37778;BME280;23615;51.506;7.678;2023-08-07T12:45:30;99909.13;;;17.47;77.37
37778;BME280;23615;51.506;7.678;2023-08-07T12:47:55;99923.66;;;17.82;78.39
37778;BME280;23615;51.506;7.678;2023-08-07T12:50:20;99921.75;;;17.92;75.33
37778;BME280;23615;51.506;7.678;2023-08-07T12:52:46;99912.88;;;17.72;74.96
37778;BME280;23615;51.506;7.678;2023-08-07T12:55:11;99925.84;;;17.44;75.97
37778;BME280;23615;51.506;7.678;2023-08-07T12:57:42;99926.63;;;17.40;77.28
37778;BME280;23615;51.506;7.678;2023-08-07T13:00:10;99920.72;;;17.63;78.93
37778;BME280;23615;51.506;7.678;2023-08-07T13:02:44;99935.78;;;17.79;78.38
37778;BME280;23615;51.506;7.678;2023-08-07T13:05:10;99920.38;;;18.00;78.97
37778;BME280;23615;51.506;7.678;2023-08-07T13:07:36;99920.38;;;18.00;80.12
37778;BME280;23615;51.506;7.678;2023-08-07T13:10:04;99937.34;;;18.06;79.83
37778;BME280;23615;51.506;7.678;2023-08-07T13:12:30;99951.19;;;17.74;77.06
37778;BME280;23615;51.506;7.678;2023-08-07T13:14:59;99959.81;;;17.50;76.96
37778;BME280;23615;51.506;7.678;2023-08-07T13:17:24;99934.47;;;17.26;77.07